sensor_id;sensor_type;location;lat;lon;timestamp;temperature;humidity
38902;DHT22;24661;53.566;9.910;2023-02-22T00:01:27;8.90;99.90
38902;DHT22;24661;53.566;9.910;2023-02-22T00:03:59;8.90;99.90
38902;DHT22;24661;53.566;9.910;2023-02-22T00:06:25;8.90;99.90
38902;DHT22;24661;53.566;9.910;2023-02-22T00:08:51;8.90;99.90
38902;DHT22;24661;53.566;9.910;2023-02-22T00:11:18;9.00;99.90
38902;DHT22;24661;53.566;9.910;2023-02-22T00:13:45;8.90;99.90
38902;DHT22;24661;53.566;9.910;2023-02-22T00:16:19;8.90;99.90
38902;DHT22;24661;53.566;9.910;2023-02-22T00:18:45;9.00;99.90
38902;DHT22;24661;53.566;9.910;2023-02-22T00:21:12;8.90;99.90
38902;DHT22;24661;53.566;9.910;2023-02-22T00:23:40;8.90;99.90
38902;DHT22;24661;53.566;9.910;2023-02-22T00:26:12;9.00;99.90
38902;DHT22;24661;53.566;9.910;2023-02-22T00:28:38;9.00;99.90
38902;DHT22;24661;53.566;9.910;2023-02-22T00:31:05;9.00;99.90
38902;DHT22;24661;53.566;9.910;2023-02-22T00:33:32;8.90;99.90
38902;DHT22;24661;53.566;9.910;2023-02-22T00:35:58;8.90;99.90
38902;DHT22;24661;53.566;9.910;2023-02-22T00:38:23;8.90;99.90
38902;DHT22;24661;53.566;9.910;2023-02-22T00:40:50;8.90;99.90
38902;DHT22;24661;53.566;9.910;2023-02-22T00:43:15;10.00;99.90
38902;DHT22;24661;53.566;9.910;2023-02-22T00:45:41;8.80;99.90
38902;DHT22;24661;53.566;9.910;2023-02-22T00:48:08;8.90;99.90
38902;DHT22;24661;53.566;9.910;2023-02-22T00:50:34;8.90;99.90
38902;DHT22;24661;53.566;9.910;2023-02-22T00:53:01;8.80;99.90
38902;DHT22;24661;53.566;9.910;2023-02-22T00:55:33;8.80;99.90
38902;DHT22;24661;53.566;9.910;2023-02-22T00:57:59;8.80;99.90
38902;DHT22;24661;53.566;9.910;2023-02-22T01:00:39;8.80;99.90
38902;DHT22;24661;53.566;9.910;2023-02-22T01:03:07;8.90;99.90
38902;DHT22;24661;53.566;9.910;2023-02-22T01:05:33;8.80;99.90
38902;DHT22;24661;53.566;9.910;2023-02-22T01:08:00;8.80;99.90
38902;DHT22;24661;53.566;9.910;2023-02-22T01:10:28;8.80;99.90
38902;DHT22;24661;53.566;9.910;2023-02-22T01:12:55;8.80;99.90
38902;DHT22;24661;53.566;9.910;2023-02-22T01:15:23;8.80;99.90
38902;DHT22;24661;53.566;9.910;2023-02-22T01:17:50;8.70;99.90
38902;DHT22;24661;53.566;9.910;2023-02-22T01:20:17;8.70;99.90
38902;DHT22;24661;53.566;9.910;2023-02-22T01:22:45;8.60;99.90
38902;DHT22;24661;53.566;9.910;2023-02-22T01:25:14;8.60;99.90
38902;DHT22;24661;53.566;9.910;2023-02-22T01:27:40;8.60;99.90
38902;DHT22;24661;53.566;9.910;2023-02-22T01:30:07;8.50;99.90
38902;DHT22;24661;53.566;9.910;2023-02-22T01:32:37;8.50;99.90
38902;DHT22;24661;53.566;9.910;2023-02-22T01:35:06;8.50;99.90
38902;DHT22;24661;53.566;9.910;2023-02-22T01:37:35;8.50;99.90
38902;DHT22;24661;53.566;9.910;2023-02-22T01:40:03;8.50;99.90
38902;DHT22;24661;53.566;9.910;2023-02-22T01:42:29;8.60;99.90
38902;DHT22;24661;53.566;9.910;2023-02-22T01:47:56;8.60;99.90
38902;DHT22;24661;53.566;9.910;2023-02-22T01:50:22;8.60;99.90
38902;DHT22;24661;53.566;9.910;2023-02-22T01:52:49;8.60;99.90
38902;DHT22;24661;53.566;9.910;2023-02-22T01:55:16;8.60;99.90
38902;DHT22;24661;53.566;9.910;2023-02-22T01:57:42;8.60;99.90
38902;DHT22;24661;53.566;9.910;2023-02-22T02:00:11;8.60;99.90
38902;DHT22;24661;53.566;9.910;2023-02-22T02:02:45;8.50;99.90
38902;DHT22;24661;53.566;9.910;2023-02-22T02:05:12;8.50;99.90
38902;DHT22;24661;53.566;9.910;2023-02-22T02:07:38;8.60;99.90
38902;DHT22;24661;53.566;9.910;2023-02-22T02:10:10;8.60;99.90
38902;DHT22;24661;53.566;9.910;2023-02-22T02:12:39;8.60;99.90
38902;DHT22;24661;53.566;9.910;2023-02-22T02:15:35;8.50;99.90
38902;DHT22;24661;53.566;9.910;2023-02-22T02:18:03;8.40;99.90
38902;DHT22;24661;53.566;9.910;2023-02-22T02:26:43;8.40;99.90
38902;DHT22;24661;53.566;9.910;2023-02-22T02:33:18;8.40;99.90
38902;DHT22;24661;53.566;9.910;2023-02-22T02:40:58;8.50;99.90
38902;DHT22;24661;53.566;9.910;2023-02-22T02:43:40;8.40;99.90
38902;DHT22;24661;53.566;9.910;2023-02-22T02:46:33;8.40;99.90
38902;DHT22;24661;53.566;9.910;2023-02-22T02:49:09;8.40;99.90
38902;DHT22;24661;53.566;9.910;2023-02-22T02:51:42;8.40;99.90
38902;DHT22;24661;53.566;9.910;2023-02-22T02:54:09;8.40;99.90
38902;DHT22;24661;53.566;9.910;2023-02-22T02:56:35;8.40;99.90
38902;DHT22;24661;53.566;9.910;2023-02-22T02:59:01;9.60;99.90
38902;DHT22;24661;53.566;9.910;2023-02-22T03:10:14;8.30;99.90
38902;DHT22;24661;53.566;9.910;2023-02-22T03:12:56;8.30;99.90
38902;DHT22;24661;53.566;9.910;2023-02-22T03:15:43;8.40;99.90
38902;DHT22;24661;53.566;9.910;2023-02-22T03:18:16;8.30;99.90
38902;DHT22;24661;53.566;9.910;2023-02-22T03:20:54;8.30;99.90
38902;DHT22;24661;53.566;9.910;2023-02-22T03:23:58;8.40;99.90
38902;DHT22;24661;53.566;9.910;2023-02-22T03:26:37;8.30;99.90
38902;DHT22;24661;53.566;9.910;2023-02-22T03:29:05;8.40;99.90
38902;DHT22;24661;53.566;9.910;2023-02-22T03:31:38;8.30;99.90
38902;DHT22;24661;53.566;9.910;2023-02-22T03:34:36;8.30;99.90
38902;DHT22;24661;53.566;9.910;2023-02-22T03:37:16;8.40;99.90
38902;DHT22;24661;53.566;9.910;2023-02-22T03:39:43;8.40;99.90
38902;DHT22;24661;53.566;9.910;2023-02-22T03:42:18;8.40;99.90
38902;DHT22;24661;53.566;9.910;2023-02-22T03:44:46;8.30;99.90
38902;DHT22;24661;53.566;9.910;2023-02-22T03:47:20;8.40;99.90
38902;DHT22;24661;53.566;9.910;2023-02-22T03:49:56;8.40;99.90
38902;DHT22;24661;53.566;9.910;2023-02-22T03:52:24;8.40;99.90
38902;DHT22;24661;53.566;9.910;2023-02-22T03:54:50;8.40;99.90
38902;DHT22;24661;53.566;9.910;2023-02-22T03:57:26;8.40;99.90
38902;DHT22;24661;53.566;9.910;2023-02-22T03:59:53;8.40;99.90
38902;DHT22;24661;53.566;9.910;2023-02-22T04:02:19;8.30;99.90
38902;DHT22;24661;53.566;9.910;2023-02-22T04:04:45;8.40;99.90
38902;DHT22;24661;53.566;9.910;2023-02-22T04:07:11;8.40;99.90
38902;DHT22;24661;53.566;9.910;2023-02-22T04:09:37;8.40;99.90
38902;DHT22;24661;53.566;9.910;2023-02-22T04:12:02;8.40;99.90
38902;DHT22;24661;53.566;9.910;2023-02-22T04:14:29;8.40;99.90
38902;DHT22;24661;53.566;9.910;2023-02-22T04:16:54;8.30;99.90
38902;DHT22;24661;53.566;9.910;2023-02-22T04:19:20;8.40;99.90
38902;DHT22;24661;53.566;9.910;2023-02-22T04:21:46;8.40;99.90
38902;DHT22;24661;53.566;9.910;2023-02-22T04:24:12;8.40;99.90
38902;DHT22;24661;53.566;9.910;2023-02-22T04:26:38;8.50;99.90
38902;DHT22;24661;53.566;9.910;2023-02-22T04:29:03;8.40;99.90
38902;DHT22;24661;53.566;9.910;2023-02-22T04:31:30;8.40;99.90
38902;DHT22;24661;53.566;9.910;2023-02-22T04:33:55;8.30;99.90
38902;DHT22;24661;53.566;9.910;2023-02-22T04:36:21;8.40;99.90
38902;DHT22;24661;53.566;9.910;2023-02-22T04:38:47;8.40;99.90
38902;DHT22;24661;53.566;9.910;2023-02-22T04:41:12;8.30;99.90
38902;DHT22;24661;53.566;9.910;2023-02-22T04:43:38;8.40;99.90
38902;DHT22;24661;53.566;9.910;2023-02-22T04:46:04;8.40;99.90
38902;DHT22;24661;53.566;9.910;2023-02-22T04:48:30;8.40;99.90
38902;DHT22;24661;53.566;9.910;2023-02-22T04:50:56;8.30;99.90
38902;DHT22;24661;53.566;9.910;2023-02-22T04:53:21;8.40;99.90
38902;DHT22;24661;53.566;9.910;2023-02-22T04:55:47;8.40;99.90
38902;DHT22;24661;53.566;9.910;2023-02-22T04:58:13;8.40;99.90
38902;DHT22;24661;53.566;9.910;2023-02-22T05:00:38;8.40;99.90
38902;DHT22;24661;53.566;9.910;2023-02-22T05:03:04;8.40;99.90
38902;DHT22;24661;53.566;9.910;2023-02-22T05:05:29;8.30;99.90
38902;DHT22;24661;53.566;9.910;2023-02-22T05:07:55;8.30;99.90
38902;DHT22;24661;53.566;9.910;2023-02-22T05:10:20;8.30;99.90
38902;DHT22;24661;53.566;9.910;2023-02-22T05:12:46;8.30;99.90
38902;DHT22;24661;53.566;9.910;2023-02-22T05:15:16;8.30;99.90
38902;DHT22;24661;53.566;9.910;2023-02-22T05:17:42;8.30;99.90
38902;DHT22;24661;53.566;9.910;2023-02-22T05:20:21;8.30;99.90
38902;DHT22;24661;53.566;9.910;2023-02-22T05:22:47;8.30;99.90
38902;DHT22;24661;53.566;9.910;2023-02-22T05:25:13;8.30;99.90
38902;DHT22;24661;53.566;9.910;2023-02-22T05:27:39;8.30;99.90
38902;DHT22;24661;53.566;9.910;2023-02-22T05:30:05;8.40;99.90
38902;DHT22;24661;53.566;9.910;2023-02-22T05:32:33;8.40;99.90
38902;DHT22;24661;53.566;9.910;2023-02-22T05:34:59;8.40;99.90
38902;DHT22;24661;53.566;9.910;2023-02-22T05:37:25;8.40;99.90
38902;DHT22;24661;53.566;9.910;2023-02-22T05:39:50;8.40;99.90
38902;DHT22;24661;53.566;9.910;2023-02-22T05:42:16;8.40;99.90
38902;DHT22;24661;53.566;9.910;2023-02-22T05:44:43;8.40;99.90
38902;DHT22;24661;53.566;9.910;2023-02-22T05:47:09;8.40;99.90
38902;DHT22;24661;53.566;9.910;2023-02-22T05:49:34;8.40;99.90
38902;DHT22;24661;53.566;9.910;2023-02-22T05:52:00;8.40;99.90
38902;DHT22;24661;53.566;9.910;2023-02-22T05:54:25;8.40;99.90
38902;DHT22;24661;53.566;9.910;2023-02-22T05:56:51;8.40;99.90
38902;DHT22;24661;53.566;9.910;2023-02-22T05:59:16;8.50;99.90
38902;DHT22;24661;53.566;9.910;2023-02-22T06:01:42;8.50;99.90
38902;DHT22;24661;53.566;9.910;2023-02-22T06:04:07;8.50;99.90
38902;DHT22;24661;53.566;9.910;2023-02-22T06:06:33;8.50;99.90
38902;DHT22;24661;53.566;9.910;2023-02-22T06:08:59;8.50;99.90
38902;DHT22;24661;53.566;9.910;2023-02-22T06:11:25;8.40;99.90
38902;DHT22;24661;53.566;9.910;2023-02-22T06:13:51;8.40;99.90
38902;DHT22;24661;53.566;9.910;2023-02-22T06:16:21;8.40;99.90
38902;DHT22;24661;53.566;9.910;2023-02-22T06:18:47;8.40;99.90
38902;DHT22;24661;53.566;9.910;2023-02-22T06:21:12;8.50;99.90
38902;DHT22;24661;53.566;9.910;2023-02-22T06:23:38;8.40;99.90
38902;DHT22;24661;53.566;9.910;2023-02-22T06:26:03;8.40;99.90
38902;DHT22;24661;53.566;9.910;2023-02-22T06:28:30;8.50;99.90
38902;DHT22;24661;53.566;9.910;2023-02-22T06:30:58;8.50;99.90
38902;DHT22;24661;53.566;9.910;2023-02-22T06:33:23;8.50;99.90
38902;DHT22;24661;53.566;9.910;2023-02-22T06:35:49;8.50;99.90
38902;DHT22;24661;53.566;9.910;2023-02-22T06:38:23;8.50;99.90
38902;DHT22;24661;53.566;9.910;2023-02-22T06:40:49;8.50;99.90
38902;DHT22;24661;53.566;9.910;2023-02-22T06:43:15;8.60;99.90
38902;DHT22;24661;53.566;9.910;2023-02-22T06:45:41;8.50;99.90
38902;DHT22;24661;53.566;9.910;2023-02-22T06:48:06;8.60;99.90
38902;DHT22;24661;53.566;9.910;2023-02-22T06:50:33;9.00;99.90
38902;DHT22;24661;53.566;9.910;2023-02-22T06:52:59;8.50;99.90
38902;DHT22;24661;53.566;9.910;2023-02-22T06:55:30;8.60;99.90
38902;DHT22;24661;53.566;9.910;2023-02-22T06:57:57;8.60;99.90
38902;DHT22;24661;53.566;9.910;2023-02-22T07:00:24;8.70;99.90
38902;DHT22;24661;53.566;9.910;2023-02-22T07:02:50;8.70;99.90
38902;DHT22;24661;53.566;9.910;2023-02-22T07:05:18;8.70;99.90
38902;DHT22;24661;53.566;9.910;2023-02-22T07:07:44;8.70;99.90
38902;DHT22;24661;53.566;9.910;2023-02-22T07:10:20;8.60;99.90
38902;DHT22;24661;53.566;9.910;2023-02-22T07:12:46;8.60;99.90
38902;DHT22;24661;53.566;9.910;2023-02-22T07:15:13;8.60;99.90
38902;DHT22;24661;53.566;9.910;2023-02-22T07:17:39;8.60;99.90
38902;DHT22;24661;53.566;9.910;2023-02-22T07:20:06;8.70;99.90
38902;DHT22;24661;53.566;9.910;2023-02-22T07:22:32;8.70;99.90
38902;DHT22;24661;53.566;9.910;2023-02-22T07:24:57;8.60;99.90
38902;DHT22;24661;53.566;9.910;2023-02-22T07:27:24;8.70;99.90
38902;DHT22;24661;53.566;9.910;2023-02-22T07:29:50;8.70;99.90
38902;DHT22;24661;53.566;9.910;2023-02-22T07:32:15;8.70;99.90
38902;DHT22;24661;53.566;9.910;2023-02-22T07:34:41;8.70;99.90
38902;DHT22;24661;53.566;9.910;2023-02-22T07:37:07;8.60;99.90
38902;DHT22;24661;53.566;9.910;2023-02-22T07:39:33;8.70;99.90
38902;DHT22;24661;53.566;9.910;2023-02-22T07:41:59;8.70;99.90
38902;DHT22;24661;53.566;9.910;2023-02-22T07:44:24;8.80;99.90
38902;DHT22;24661;53.566;9.910;2023-02-22T07:46:50;8.80;99.90
38902;DHT22;24661;53.566;9.910;2023-02-22T07:49:16;8.80;99.90
38902;DHT22;24661;53.566;9.910;2023-02-22T07:51:43;8.80;99.90
38902;DHT22;24661;53.566;9.910;2023-02-22T07:54:08;8.90;99.90
38902;DHT22;24661;53.566;9.910;2023-02-22T07:56:34;8.90;99.90
38902;DHT22;24661;53.566;9.910;2023-02-22T07:58:59;8.90;99.90
38902;DHT22;24661;53.566;9.910;2023-02-22T08:01:26;8.90;99.90
38902;DHT22;24661;53.566;9.910;2023-02-22T08:03:51;8.90;99.90
38902;DHT22;24661;53.566;9.910;2023-02-22T08:06:18;8.90;99.90
38902;DHT22;24661;53.566;9.910;2023-02-22T08:08:45;8.90;99.90
38902;DHT22;24661;53.566;9.910;2023-02-22T08:11:11;9.00;99.90
38902;DHT22;24661;53.566;9.910;2023-02-22T08:13:37;9.00;99.90
38902;DHT22;24661;53.566;9.910;2023-02-22T08:16:03;9.00;99.90
38902;DHT22;24661;53.566;9.910;2023-02-22T08:18:29;9.10;99.90
38902;DHT22;24661;53.566;9.910;2023-02-22T08:20:55;8.40;99.90
38902;DHT22;24661;53.566;9.910;2023-02-22T08:23:23;9.00;99.90
38902;DHT22;24661;53.566;9.910;2023-02-22T08:25:49;9.00;99.90
38902;DHT22;24661;53.566;9.910;2023-02-22T08:28:17;9.10;99.90
38902;DHT22;24661;53.566;9.910;2023-02-22T08:30:44;9.20;99.90
38902;DHT22;24661;53.566;9.910;2023-02-22T08:33:11;9.10;99.90
38902;DHT22;24661;53.566;9.910;2023-02-22T08:35:39;9.20;99.90
38902;DHT22;24661;53.566;9.910;2023-02-22T08:38:05;9.20;99.90
38902;DHT22;24661;53.566;9.910;2023-02-22T08:40:34;9.30;99.90
38902;DHT22;24661;53.566;9.910;2023-02-22T08:43:00;9.30;99.90
38902;DHT22;24661;53.566;9.910;2023-02-22T08:45:26;9.20;99.90
38902;DHT22;24661;53.566;9.910;2023-02-22T08:47:57;9.30;99.90
38902;DHT22;24661;53.566;9.910;2023-02-22T08:50:25;9.20;99.90
38902;DHT22;24661;53.566;9.910;2023-02-22T08:52:53;9.20;99.90
38902;DHT22;24661;53.566;9.910;2023-02-22T08:55:23;9.20;99.90
38902;DHT22;24661;53.566;9.910;2023-02-22T08:57:49;9.10;99.90
38902;DHT22;24661;53.566;9.910;2023-02-22T09:00:16;9.20;99.90
38902;DHT22;24661;53.566;9.910;2023-02-22T09:02:43;9.10;99.90
38902;DHT22;24661;53.566;9.910;2023-02-22T09:05:08;9.10;99.90
38902;DHT22;24661;53.566;9.910;2023-02-22T09:07:34;9.20;99.90
38902;DHT22;24661;53.566;9.910;2023-02-22T09:09:59;9.30;99.90
38902;DHT22;24661;53.566;9.910;2023-02-22T09:12:25;9.40;99.90
38902;DHT22;24661;53.566;9.910;2023-02-22T09:14:51;9.40;99.90
38902;DHT22;24661;53.566;9.910;2023-02-22T09:17:16;9.40;99.90
38902;DHT22;24661;53.566;9.910;2023-02-22T09:19:42;9.30;99.90
38902;DHT22;24661;53.566;9.910;2023-02-22T09:22:09;8.60;99.90
38902;DHT22;24661;53.566;9.910;2023-02-22T09:24:35;9.20;99.90
38902;DHT22;24661;53.566;9.910;2023-02-22T09:27:01;9.30;99.90
38902;DHT22;24661;53.566;9.910;2023-02-22T09:29:29;9.30;99.90
38902;DHT22;24661;53.566;9.910;2023-02-22T09:31:55;9.30;99.90
38902;DHT22;24661;53.566;9.910;2023-02-22T09:34:23;9.30;99.90
38902;DHT22;24661;53.566;9.910;2023-02-22T09:36:55;9.30;99.90
38902;DHT22;24661;53.566;9.910;2023-02-22T09:39:22;9.30;99.90
38902;DHT22;24661;53.566;9.910;2023-02-22T09:45:06;9.40;99.90
38902;DHT22;24661;53.566;9.910;2023-02-22T09:47:59;9.50;99.90
38902;DHT22;24661;53.566;9.910;2023-02-22T09:50:38;9.60;99.90
38902;DHT22;24661;53.566;9.910;2023-02-22T09:55:50;9.70;99.90
38902;DHT22;24661;53.566;9.910;2023-02-22T10:01:52;9.80;99.90
38902;DHT22;24661;53.566;9.910;2023-02-22T10:06:29;9.80;99.90
38902;DHT22;24661;53.566;9.910;2023-02-22T10:09:00;9.90;99.90
38902;DHT22;24661;53.566;9.910;2023-02-22T10:11:59;9.80;99.90
38902;DHT22;24661;53.566;9.910;2023-02-22T10:17:49;10.10;99.90
38902;DHT22;24661;53.566;9.910;2023-02-22T10:25:36;10.50;99.90
38902;DHT22;24661;53.566;9.910;2023-02-22T10:28:29;10.40;99.90
38902;DHT22;24661;53.566;9.910;2023-02-22T10:31:06;10.40;99.90
38902;DHT22;24661;53.566;9.910;2023-02-22T10:33:38;10.50;99.90
38902;DHT22;24661;53.566;9.910;2023-02-22T10:36:17;10.70;99.90
38902;DHT22;24661;53.566;9.910;2023-02-22T10:39:22;10.70;99.90
38902;DHT22;24661;53.566;9.910;2023-02-22T10:41:52;10.90;99.90
38902;DHT22;24661;53.566;9.910;2023-02-22T10:44:20;11.10;99.90
38902;DHT22;24661;53.566;9.910;2023-02-22T10:46:46;11.20;99.90
38902;DHT22;24661;53.566;9.910;2023-02-22T10:49:17;11.10;99.90
38902;DHT22;24661;53.566;9.910;2023-02-22T10:51:56;11.20;99.90
38902;DHT22;24661;53.566;9.910;2023-02-22T10:54:32;11.20;99.90
38902;DHT22;24661;53.566;9.910;2023-02-22T10:57:01;11.30;99.90
38902;DHT22;24661;53.566;9.910;2023-02-22T10:59:34;11.40;99.90
38902;DHT22;24661;53.566;9.910;2023-02-22T11:02:08;11.50;99.90
38902;DHT22;24661;53.566;9.910;2023-02-22T11:04:53;11.50;99.90
38902;DHT22;24661;53.566;9.910;2023-02-22T11:07:25;11.60;99.90
38902;DHT22;24661;53.566;9.910;2023-02-22T11:09:59;11.70;99.90
38902;DHT22;24661;53.566;9.910;2023-02-22T11:12:32;11.90;99.90
38902;DHT22;24661;53.566;9.910;2023-02-22T11:17:52;12.10;99.90
38902;DHT22;24661;53.566;9.910;2023-02-22T11:20:23;12.20;99.90
38902;DHT22;24661;53.566;9.910;2023-02-22T11:22:54;12.20;99.90
38902;DHT22;24661;53.566;9.910;2023-02-22T11:25:25;12.40;99.90
38902;DHT22;24661;53.566;9.910;2023-02-22T11:27:52;12.50;99.90
38902;DHT22;24661;53.566;9.910;2023-02-22T11:30:26;12.60;99.90
38902;DHT22;24661;53.566;9.910;2023-02-22T11:33:21;12.50;99.90
38902;DHT22;24661;53.566;9.910;2023-02-22T11:35:56;12.50;99.90
38902;DHT22;24661;53.566;9.910;2023-02-22T11:38:31;12.60;99.90
38902;DHT22;24661;53.566;9.910;2023-02-22T11:41:16;12.60;99.90
38902;DHT22;24661;53.566;9.910;2023-02-22T11:43:47;12.70;99.90
38902;DHT22;24661;53.566;9.910;2023-02-22T11:46:21;12.60;99.90
38902;DHT22;24661;53.566;9.910;2023-02-22T11:49:00;12.60;99.90
38902;DHT22;24661;53.566;9.910;2023-02-22T11:52:41;12.60;99.90
38902;DHT22;24661;53.566;9.910;2023-02-22T11:54:42;12.40;99.90
38902;DHT22;24661;53.566;9.910;2023-02-22T12:08:42;12.60;99.90
38902;DHT22;24661;53.566;9.910;2023-02-22T12:17:22;12.50;99.90
38902;DHT22;24661;53.566;9.910;2023-02-22T12:19:43;12.50;99.90
38902;DHT22;24661;53.566;9.910;2023-02-22T12:22:24;12.60;99.90
38902;DHT22;24661;53.566;9.910;2023-02-22T12:25:02;12.70;99.90
38902;DHT22;24661;53.566;9.910;2023-02-22T12:27:44;12.90;99.90
38902;DHT22;24661;53.566;9.910;2023-02-22T12:33:36;13.00;99.90
38902;DHT22;24661;53.566;9.910;2023-02-22T12:35:44;12.80;99.90
38902;DHT22;24661;53.566;9.910;2023-02-22T12:38:29;12.50;99.90
38902;DHT22;24661;53.566;9.910;2023-02-22T12:43:51;12.70;99.90
38902;DHT22;24661;53.566;9.910;2023-02-22T12:49:21;13.00;99.90
38902;DHT22;24661;53.566;9.910;2023-02-22T12:52:11;13.00;99.90
38902;DHT22;24661;53.566;9.910;2023-02-22T12:59:59;12.80;99.90
38902;DHT22;24661;53.566;9.910;2023-02-22T13:02:42;12.90;99.90
38902;DHT22;24661;53.566;9.910;2023-02-22T13:05:16;12.90;99.90
38902;DHT22;24661;53.566;9.910;2023-02-22T13:08:04;12.90;99.90
38902;DHT22;24661;53.566;9.910;2023-02-22T13:11:03;12.60;99.90
38902;DHT22;24661;53.566;9.910;2023-02-22T13:13:56;12.50;99.90
38902;DHT22;24661;53.566;9.910;2023-02-22T13:16:50;12.60;99.90
38902;DHT22;24661;53.566;9.910;2023-02-22T13:25:19;12.60;99.90
38902;DHT22;24661;53.566;9.910;2023-02-22T13:27:54;12.70;99.90
38902;DHT22;24661;53.566;9.910;2023-02-22T13:30:41;12.50;99.90
38902;DHT22;24661;53.566;9.910;2023-02-22T13:44:44;12.50;99.90
38902;DHT22;24661;53.566;9.910;2023-02-22T13:52:30;12.40;99.90
38902;DHT22;24661;53.566;9.910;2023-02-22T13:55:01;12.30;99.90
38902;DHT22;24661;53.566;9.910;2023-02-22T13:57:38;12.20;99.90
38902;DHT22;24661;53.566;9.910;2023-02-22T14:00:18;12.20;99.90
38902;DHT22;24661;53.566;9.910;2023-02-22T14:08:00;12.20;99.90
38902;DHT22;24661;53.566;9.910;2023-02-22T14:13:06;12.20;99.90
38902;DHT22;24661;53.566;9.910;2023-02-22T14:15:32;12.10;99.90
38902;DHT22;24661;53.566;9.910;2023-02-22T14:17:59;12.20;99.90
38902;DHT22;24661;53.566;9.910;2023-02-22T14:25:43;12.20;99.90
38902;DHT22;24661;53.566;9.910;2023-02-22T14:31:13;12.10;99.90
38902;DHT22;24661;53.566;9.910;2023-02-22T14:36:32;12.00;99.90
38902;DHT22;24661;53.566;9.910;2023-02-22T14:39:31;12.00;99.90
38902;DHT22;24661;53.566;9.910;2023-02-22T14:42:18;12.00;99.90
38902;DHT22;24661;53.566;9.910;2023-02-22T14:45:04;12.00;99.90
38902;DHT22;24661;53.566;9.910;2023-02-22T14:50:24;12.00;99.90
38902;DHT22;24661;53.566;9.910;2023-02-22T14:53:06;12.00;99.90
38902;DHT22;24661;53.566;9.910;2023-02-22T14:55:40;12.00;99.90
38902;DHT22;24661;53.566;9.910;2023-02-22T14:58:20;12.00;99.90
38902;DHT22;24661;53.566;9.910;2023-02-22T15:00:49;11.90;99.90
38902;DHT22;24661;53.566;9.910;2023-02-22T15:03:27;12.00;99.90
38902;DHT22;24661;53.566;9.910;2023-02-22T15:06:18;11.90;99.90
38902;DHT22;24661;53.566;9.910;2023-02-22T15:08:45;11.80;99.90
38902;DHT22;24661;53.566;9.910;2023-02-22T15:11:25;11.80;99.90
38902;DHT22;24661;53.566;9.910;2023-02-22T15:13:56;11.80;99.90
38902;DHT22;24661;53.566;9.910;2023-02-22T15:16:25;11.80;99.90
38902;DHT22;24661;53.566;9.910;2023-02-22T15:18:54;11.80;99.90
38902;DHT22;24661;53.566;9.910;2023-02-22T15:21:23;11.90;99.90
38902;DHT22;24661;53.566;9.910;2023-02-22T15:24:02;11.80;99.90
38902;DHT22;24661;53.566;9.910;2023-02-22T15:26:38;11.80;99.90
38902;DHT22;24661;53.566;9.910;2023-02-22T15:29:17;11.80;99.90
38902;DHT22;24661;53.566;9.910;2023-02-22T15:31:43;11.80;99.90
38902;DHT22;24661;53.566;9.910;2023-02-22T15:36:44;11.70;99.90
38902;DHT22;24661;53.566;9.910;2023-02-22T15:42:20;11.60;99.90
38902;DHT22;24661;53.566;9.910;2023-02-22T15:44:49;12.40;99.90
38902;DHT22;24661;53.566;9.910;2023-02-22T15:47:24;11.60;99.90
38902;DHT22;24661;53.566;9.910;2023-02-22T15:52:56;11.60;99.90
38902;DHT22;24661;53.566;9.910;2023-02-22T15:55:32;11.50;99.90
38902;DHT22;24661;53.566;9.910;2023-02-22T15:58:22;11.50;99.90
38902;DHT22;24661;53.566;9.910;2023-02-22T16:03:26;11.50;99.90
38902;DHT22;24661;53.566;9.910;2023-02-22T16:05:55;11.50;99.90
38902;DHT22;24661;53.566;9.910;2023-02-22T16:08:24;11.40;99.90
38902;DHT22;24661;53.566;9.910;2023-02-22T16:10:57;11.40;99.90
38902;DHT22;24661;53.566;9.910;2023-02-22T16:13:25;11.40;99.90
38902;DHT22;24661;53.566;9.910;2023-02-22T16:16:20;11.40;99.90
38902;DHT22;24661;53.566;9.910;2023-02-22T16:18:48;11.40;99.90
38902;DHT22;24661;53.566;9.910;2023-02-22T16:21:19;11.40;99.90
38902;DHT22;24661;53.566;9.910;2023-02-22T16:23:51;11.30;99.90
38902;DHT22;24661;53.566;9.910;2023-02-22T16:26:31;11.30;99.90
38902;DHT22;24661;53.566;9.910;2023-02-22T16:29:02;11.30;99.90
38902;DHT22;24661;53.566;9.910;2023-02-22T16:31:32;11.30;99.90
38902;DHT22;24661;53.566;9.910;2023-02-22T16:33:58;11.20;99.90
38902;DHT22;24661;53.566;9.910;2023-02-22T16:36:42;11.20;99.90
38902;DHT22;24661;53.566;9.910;2023-02-22T16:39:27;11.20;99.90
38902;DHT22;24661;53.566;9.910;2023-02-22T16:41:58;11.20;99.90
38902;DHT22;24661;53.566;9.910;2023-02-22T16:44:25;11.10;99.90
38902;DHT22;24661;53.566;9.910;2023-02-22T16:46:57;11.10;99.90
38902;DHT22;24661;53.566;9.910;2023-02-22T16:49:24;11.10;99.90
38902;DHT22;24661;53.566;9.910;2023-02-22T16:51:52;11.10;99.90
38902;DHT22;24661;53.566;9.910;2023-02-22T16:54:26;11.00;99.90
38902;DHT22;24661;53.566;9.910;2023-02-22T16:56:55;11.00;99.90
38902;DHT22;24661;53.566;9.910;2023-02-22T16:59:21;11.00;99.90
38902;DHT22;24661;53.566;9.910;2023-02-22T17:01:47;11.00;99.90
38902;DHT22;24661;53.566;9.910;2023-02-22T17:04:21;11.00;99.90
38902;DHT22;24661;53.566;9.910;2023-02-22T17:06:49;10.90;99.90
38902;DHT22;24661;53.566;9.910;2023-02-22T17:09:14;10.90;99.90
38902;DHT22;24661;53.566;9.910;2023-02-22T17:11:40;10.90;99.90
38902;DHT22;24661;53.566;9.910;2023-02-22T17:14:07;10.80;99.90
38902;DHT22;24661;53.566;9.910;2023-02-22T17:16:33;10.80;99.90
38902;DHT22;24661;53.566;9.910;2023-02-22T17:18:59;10.80;99.90
38902;DHT22;24661;53.566;9.910;2023-02-22T17:21:24;9.40;99.90
38902;DHT22;24661;53.566;9.910;2023-02-22T17:23:50;10.70;99.90
38902;DHT22;24661;53.566;9.910;2023-02-22T17:26:16;10.70;99.90
38902;DHT22;24661;53.566;9.910;2023-02-22T17:28:42;10.70;99.90
38902;DHT22;24661;53.566;9.910;2023-02-22T17:31:23;10.70;99.90
38902;DHT22;24661;53.566;9.910;2023-02-22T17:33:50;10.70;99.90
38902;DHT22;24661;53.566;9.910;2023-02-22T17:36:16;10.60;99.90
38902;DHT22;24661;53.566;9.910;2023-02-22T17:38:42;10.60;99.90
38902;DHT22;24661;53.566;9.910;2023-02-22T17:41:08;10.60;99.90
38902;DHT22;24661;53.566;9.910;2023-02-22T17:43:34;10.60;99.90
38902;DHT22;24661;53.566;9.910;2023-02-22T17:46:04;10.50;99.90
38902;DHT22;24661;53.566;9.910;2023-02-22T17:48:32;10.50;99.90
38902;DHT22;24661;53.566;9.910;2023-02-22T17:50:58;10.50;99.90
38902;DHT22;24661;53.566;9.910;2023-02-22T17:53:23;10.50;99.90
38902;DHT22;24661;53.566;9.910;2023-02-22T17:55:50;10.40;99.90
38902;DHT22;24661;53.566;9.910;2023-02-22T17:58:16;10.50;99.90
38902;DHT22;24661;53.566;9.910;2023-02-22T18:00:46;10.40;99.90
38902;DHT22;24661;53.566;9.910;2023-02-22T18:03:15;10.40;99.90
38902;DHT22;24661;53.566;9.910;2023-02-22T18:05:48;10.30;99.90
38902;DHT22;24661;53.566;9.910;2023-02-22T18:08:14;10.30;99.90
38902;DHT22;24661;53.566;9.910;2023-02-22T18:10:41;10.30;99.90
38902;DHT22;24661;53.566;9.910;2023-02-22T18:13:08;10.30;99.90
38902;DHT22;24661;53.566;9.910;2023-02-22T18:15:34;10.30;99.90
38902;DHT22;24661;53.566;9.910;2023-02-22T18:18:01;10.20;99.90